sensor_id;sensor_type;location;lat;lon;timestamp;temperature;humidity
14006;DHT22;7078;51.542;7.314;2024-03-08T00:01:41;3.20;99.90
14006;DHT22;7078;51.542;7.314;2024-03-08T00:04:06;3.20;99.90
14006;DHT22;7078;51.542;7.314;2024-03-08T00:06:32;3.20;99.90
14006;DHT22;7078;51.542;7.314;2024-03-08T00:08:58;3.10;99.90
14006;DHT22;7078;51.542;7.314;2024-03-08T00:11:23;3.10;99.90
14006;DHT22;7078;51.542;7.314;2024-03-08T00:13:52;3.10;99.90
14006;DHT22;7078;51.542;7.314;2024-03-08T00:16:18;3.00;99.90
14006;DHT22;7078;51.542;7.314;2024-03-08T00:18:48;3.00;99.90
14006;DHT22;7078;51.542;7.314;2024-03-08T00:21:14;3.00;99.90
14006;DHT22;7078;51.542;7.314;2024-03-08T00:23:40;3.00;99.90
14006;DHT22;7078;51.542;7.314;2024-03-08T00:26:06;3.00;99.90
14006;DHT22;7078;51.542;7.314;2024-03-08T00:28:32;3.00;99.90
14006;DHT22;7078;51.542;7.314;2024-03-08T00:30:59;3.00;99.90
14006;DHT22;7078;51.542;7.314;2024-03-08T00:33:25;2.90;99.90
14006;DHT22;7078;51.542;7.314;2024-03-08T00:35:51;2.90;99.90
14006;DHT22;7078;51.542;7.314;2024-03-08T00:38:16;2.90;99.90
14006;DHT22;7078;51.542;7.314;2024-03-08T00:40:44;2.90;99.90
14006;DHT22;7078;51.542;7.314;2024-03-08T00:43:09;2.80;99.90
14006;DHT22;7078;51.542;7.314;2024-03-08T00:45:35;2.80;99.90
14006;DHT22;7078;51.542;7.314;2024-03-08T00:48:02;2.80;99.90
14006;DHT22;7078;51.542;7.314;2024-03-08T00:50:28;2.80;99.90
14006;DHT22;7078;51.542;7.314;2024-03-08T00:52:54;2.80;99.90
14006;DHT22;7078;51.542;7.314;2024-03-08T00:55:19;2.80;99.90
14006;DHT22;7078;51.542;7.314;2024-03-08T00:57:45;2.70;99.90
14006;DHT22;7078;51.542;7.314;2024-03-08T01:00:11;2.70;99.90
14006;DHT22;7078;51.542;7.314;2024-03-08T01:02:38;2.70;99.90
14006;DHT22;7078;51.542;7.314;2024-03-08T01:05:05;2.70;99.90
14006;DHT22;7078;51.542;7.314;2024-03-08T01:07:33;2.70;99.90
14006;DHT22;7078;51.542;7.314;2024-03-08T01:09:59;2.60;99.90
14006;DHT22;7078;51.542;7.314;2024-03-08T01:12:26;2.70;99.90
14006;DHT22;7078;51.542;7.314;2024-03-08T01:14:51;2.60;99.90
14006;DHT22;7078;51.542;7.314;2024-03-08T01:17:17;2.60;99.90
14006;DHT22;7078;51.542;7.314;2024-03-08T01:19:42;2.60;99.90
14006;DHT22;7078;51.542;7.314;2024-03-08T01:22:10;2.60;99.90
14006;DHT22;7078;51.542;7.314;2024-03-08T01:24:36;2.60;99.90
14006;DHT22;7078;51.542;7.314;2024-03-08T01:27:02;2.60;99.90
14006;DHT22;7078;51.542;7.314;2024-03-08T01:29:28;2.60;99.90
14006;DHT22;7078;51.542;7.314;2024-03-08T01:31:55;2.60;99.90
14006;DHT22;7078;51.542;7.314;2024-03-08T01:34:21;2.50;99.90
14006;DHT22;7078;51.542;7.314;2024-03-08T01:36:48;2.50;99.90
14006;DHT22;7078;51.542;7.314;2024-03-08T01:39:14;2.40;99.90
14006;DHT22;7078;51.542;7.314;2024-03-08T01:41:40;2.40;99.90
14006;DHT22;7078;51.542;7.314;2024-03-08T01:44:06;2.50;99.90
14006;DHT22;7078;51.542;7.314;2024-03-08T01:46:33;2.50;99.90
14006;DHT22;7078;51.542;7.314;2024-03-08T01:49:00;2.40;99.90
14006;DHT22;7078;51.542;7.314;2024-03-08T01:51:27;2.40;99.90
14006;DHT22;7078;51.542;7.314;2024-03-08T01:53:54;2.40;99.90
14006;DHT22;7078;51.542;7.314;2024-03-08T01:56:21;2.40;99.90
14006;DHT22;7078;51.542;7.314;2024-03-08T01:58:46;2.40;99.90
14006;DHT22;7078;51.542;7.314;2024-03-08T02:01:12;2.40;99.90
14006;DHT22;7078;51.542;7.314;2024-03-08T02:03:41;2.30;99.90
14006;DHT22;7078;51.542;7.314;2024-03-08T02:06:09;2.30;99.90
14006;DHT22;7078;51.542;7.314;2024-03-08T02:08:36;2.30;99.90
14006;DHT22;7078;51.542;7.314;2024-03-08T02:11:03;2.30;99.90
14006;DHT22;7078;51.542;7.314;2024-03-08T02:13:29;2.20;99.90
14006;DHT22;7078;51.542;7.314;2024-03-08T02:15:58;2.30;99.90
14006;DHT22;7078;51.542;7.314;2024-03-08T02:18:25;2.30;99.90
14006;DHT22;7078;51.542;7.314;2024-03-08T02:20:55;2.20;99.90
14006;DHT22;7078;51.542;7.314;2024-03-08T02:23:21;2.30;99.90
14006;DHT22;7078;51.542;7.314;2024-03-08T02:25:47;2.30;99.90
14006;DHT22;7078;51.542;7.314;2024-03-08T02:28:13;2.20;99.90
14006;DHT22;7078;51.542;7.314;2024-03-08T02:30:40;2.30;99.90
14006;DHT22;7078;51.542;7.314;2024-03-08T02:33:06;2.30;99.90
14006;DHT22;7078;51.542;7.314;2024-03-08T02:35:32;2.20;99.90
14006;DHT22;7078;51.542;7.314;2024-03-08T02:38:01;2.20;99.90
14006;DHT22;7078;51.542;7.314;2024-03-08T02:40:29;2.20;99.90
14006;DHT22;7078;51.542;7.314;2024-03-08T02:42:54;2.20;99.90
14006;DHT22;7078;51.542;7.314;2024-03-08T02:45:20;2.10;99.90
14006;DHT22;7078;51.542;7.314;2024-03-08T02:47:46;2.20;99.90
14006;DHT22;7078;51.542;7.314;2024-03-08T02:50:11;2.20;99.90
14006;DHT22;7078;51.542;7.314;2024-03-08T02:52:37;2.20;99.90
14006;DHT22;7078;51.542;7.314;2024-03-08T02:55:03;2.10;99.90
14006;DHT22;7078;51.542;7.314;2024-03-08T02:57:30;2.10;99.90
14006;DHT22;7078;51.542;7.314;2024-03-08T02:59:56;2.10;99.90
14006;DHT22;7078;51.542;7.314;2024-03-08T03:02:21;2.10;99.90
14006;DHT22;7078;51.542;7.314;2024-03-08T03:04:49;2.00;99.90
14006;DHT22;7078;51.542;7.314;2024-03-08T03:07:14;2.00;99.90
14006;DHT22;7078;51.542;7.314;2024-03-08T03:09:40;2.00;99.90
14006;DHT22;7078;51.542;7.314;2024-03-08T03:12:06;2.00;99.90
14006;DHT22;7078;51.542;7.314;2024-03-08T03:14:35;2.00;99.90
14006;DHT22;7078;51.542;7.314;2024-03-08T03:17:04;1.90;99.90
14006;DHT22;7078;51.542;7.314;2024-03-08T03:19:30;1.90;99.90
14006;DHT22;7078;51.542;7.314;2024-03-08T03:21:55;2.00;99.90
14006;DHT22;7078;51.542;7.314;2024-03-08T03:24:21;1.90;99.90
14006;DHT22;7078;51.542;7.314;2024-03-08T03:26:47;2.00;99.90
14006;DHT22;7078;51.542;7.314;2024-03-08T03:29:14;1.90;99.90
14006;DHT22;7078;51.542;7.314;2024-03-08T03:31:41;1.90;99.90
14006;DHT22;7078;51.542;7.314;2024-03-08T03:34:06;1.80;99.90
14006;DHT22;7078;51.542;7.314;2024-03-08T03:36:34;1.80;99.90
14006;DHT22;7078;51.542;7.314;2024-03-08T03:39:00;1.80;99.90
14006;DHT22;7078;51.542;7.314;2024-03-08T03:41:38;1.80;99.90
14006;DHT22;7078;51.542;7.314;2024-03-08T03:44:04;1.80;99.90
14006;DHT22;7078;51.542;7.314;2024-03-08T03:46:30;1.70;99.90
14006;DHT22;7078;51.542;7.314;2024-03-08T03:48:56;1.80;99.90
14006;DHT22;7078;51.542;7.314;2024-03-08T03:51:21;1.70;99.90
14006;DHT22;7078;51.542;7.314;2024-03-08T03:53:47;1.70;99.90
14006;DHT22;7078;51.542;7.314;2024-03-08T03:56:13;1.70;99.90
14006;DHT22;7078;51.542;7.314;2024-03-08T03:58:39;1.70;99.90
14006;DHT22;7078;51.542;7.314;2024-03-08T04:01:05;1.70;99.90
14006;DHT22;7078;51.542;7.314;2024-03-08T04:03:30;1.70;99.90
14006;DHT22;7078;51.542;7.314;2024-03-08T04:05:56;1.70;99.90
14006;DHT22;7078;51.542;7.314;2024-03-08T04:08:22;1.60;99.90
14006;DHT22;7078;51.542;7.314;2024-03-08T04:10:49;1.70;99.90
14006;DHT22;7078;51.542;7.314;2024-03-08T04:13:15;1.60;99.90
14006;DHT22;7078;51.542;7.314;2024-03-08T04:15:41;1.60;99.90
14006;DHT22;7078;51.542;7.314;2024-03-08T04:18:09;1.60;99.90
14006;DHT22;7078;51.542;7.314;2024-03-08T04:20:35;1.60;99.90
14006;DHT22;7078;51.542;7.314;2024-03-08T04:23:01;1.60;99.90
14006;DHT22;7078;51.542;7.314;2024-03-08T04:25:27;1.50;99.90
14006;DHT22;7078;51.542;7.314;2024-03-08T04:27:53;1.60;99.90
14006;DHT22;7078;51.542;7.314;2024-03-08T04:30:18;1.50;99.90
14006;DHT22;7078;51.542;7.314;2024-03-08T04:32:46;1.60;99.90
14006;DHT22;7078;51.542;7.314;2024-03-08T04:35:12;1.60;99.90
14006;DHT22;7078;51.542;7.314;2024-03-08T04:37:38;1.60;99.90
14006;DHT22;7078;51.542;7.314;2024-03-08T04:40:04;1.50;99.90
14006;DHT22;7078;51.542;7.314;2024-03-08T04:42:30;1.50;99.90
14006;DHT22;7078;51.542;7.314;2024-03-08T04:45:00;1.50;99.90
14006;DHT22;7078;51.542;7.314;2024-03-08T04:47:25;1.60;99.90
14006;DHT22;7078;51.542;7.314;2024-03-08T04:49:51;1.50;99.90
14006;DHT22;7078;51.542;7.314;2024-03-08T04:52:17;1.60;99.90
14006;DHT22;7078;51.542;7.314;2024-03-08T04:54:43;1.60;99.90
14006;DHT22;7078;51.542;7.314;2024-03-08T04:57:09;1.60;99.90
14006;DHT22;7078;51.542;7.314;2024-03-08T04:59:36;1.60;99.90
14006;DHT22;7078;51.542;7.314;2024-03-08T05:02:01;1.50;99.90
14006;DHT22;7078;51.542;7.314;2024-03-08T05:04:27;1.50;99.90
14006;DHT22;7078;51.542;7.314;2024-03-08T05:06:54;1.50;99.90
14006;DHT22;7078;51.542;7.314;2024-03-08T05:09:20;1.50;99.90
14006;DHT22;7078;51.542;7.314;2024-03-08T05:11:46;1.50;99.90
14006;DHT22;7078;51.542;7.314;2024-03-08T05:14:13;1.40;99.90
14006;DHT22;7078;51.542;7.314;2024-03-08T05:16:47;1.40;99.90
14006;DHT22;7078;51.542;7.314;2024-03-08T05:19:17;1.40;99.90
14006;DHT22;7078;51.542;7.314;2024-03-08T05:21:49;1.40;99.90
14006;DHT22;7078;51.542;7.314;2024-03-08T05:24:15;1.40;99.90
14006;DHT22;7078;51.542;7.314;2024-03-08T05:26:41;1.40;99.90
14006;DHT22;7078;51.542;7.314;2024-03-08T05:29:08;1.40;99.90
14006;DHT22;7078;51.542;7.314;2024-03-08T05:34:08;1.30;99.90
14006;DHT22;7078;51.542;7.314;2024-03-08T05:36:35;1.30;99.90
14006;DHT22;7078;51.542;7.314;2024-03-08T05:39:01;1.30;99.90
14006;DHT22;7078;51.542;7.314;2024-03-08T05:41:26;1.30;99.90
14006;DHT22;7078;51.542;7.314;2024-03-08T05:43:52;1.30;99.90
14006;DHT22;7078;51.542;7.314;2024-03-08T05:46:19;1.30;99.90
14006;DHT22;7078;51.542;7.314;2024-03-08T05:48:44;1.30;99.90
14006;DHT22;7078;51.542;7.314;2024-03-08T05:51:10;1.30;99.90
14006;DHT22;7078;51.542;7.314;2024-03-08T05:53:36;1.30;99.90
14006;DHT22;7078;51.542;7.314;2024-03-08T05:56:01;1.30;99.90
14006;DHT22;7078;51.542;7.314;2024-03-08T05:58:27;1.20;99.90
14006;DHT22;7078;51.542;7.314;2024-03-08T06:00:55;1.20;99.90
14006;DHT22;7078;51.542;7.314;2024-03-08T06:03:21;1.20;99.90
14006;DHT22;7078;51.542;7.314;2024-03-08T06:05:48;1.30;99.90
14006;DHT22;7078;51.542;7.314;2024-03-08T06:08:13;1.30;99.90
14006;DHT22;7078;51.542;7.314;2024-03-08T06:10:40;1.30;99.90
14006;DHT22;7078;51.542;7.314;2024-03-08T06:13:05;1.30;99.90
14006;DHT22;7078;51.542;7.314;2024-03-08T06:15:32;1.30;99.90
14006;DHT22;7078;51.542;7.314;2024-03-08T06:17:57;1.30;99.90
14006;DHT22;7078;51.542;7.314;2024-03-08T06:20:23;1.30;99.90
14006;DHT22;7078;51.542;7.314;2024-03-08T06:22:52;1.30;99.90
14006;DHT22;7078;51.542;7.314;2024-03-08T06:25:17;1.40;99.90
14006;DHT22;7078;51.542;7.314;2024-03-08T06:27:43;1.30;99.90
14006;DHT22;7078;51.542;7.314;2024-03-08T06:30:10;1.40;99.90
14006;DHT22;7078;51.542;7.314;2024-03-08T06:32:36;1.30;99.90
14006;DHT22;7078;51.542;7.314;2024-03-08T06:35:05;1.40;99.90
14006;DHT22;7078;51.542;7.314;2024-03-08T06:37:32;1.40;99.90
14006;DHT22;7078;51.542;7.314;2024-03-08T06:39:58;1.40;99.90
14006;DHT22;7078;51.542;7.314;2024-03-08T06:42:24;1.50;99.90
14006;DHT22;7078;51.542;7.314;2024-03-08T06:44:49;1.50;99.90
14006;DHT22;7078;51.542;7.314;2024-03-08T06:47:15;1.50;99.90
14006;DHT22;7078;51.542;7.314;2024-03-08T06:49:44;1.60;99.90
14006;DHT22;7078;51.542;7.314;2024-03-08T06:52:10;1.60;99.90
14006;DHT22;7078;51.542;7.314;2024-03-08T06:54:36;1.70;99.90
14006;DHT22;7078;51.542;7.314;2024-03-08T06:57:05;1.70;99.90
14006;DHT22;7078;51.542;7.314;2024-03-08T06:59:33;1.70;99.90
14006;DHT22;7078;51.542;7.314;2024-03-08T07:02:01;1.80;99.90
14006;DHT22;7078;51.542;7.314;2024-03-08T07:04:27;1.80;99.90
14006;DHT22;7078;51.542;7.314;2024-03-08T07:06:55;1.90;99.90
14006;DHT22;7078;51.542;7.314;2024-03-08T07:09:21;1.90;99.90
14006;DHT22;7078;51.542;7.314;2024-03-08T07:11:46;2.00;99.90
14006;DHT22;7078;51.542;7.314;2024-03-08T07:14:12;2.10;99.90
14006;DHT22;7078;51.542;7.314;2024-03-08T07:16:40;2.10;99.90
14006;DHT22;7078;51.542;7.314;2024-03-08T07:19:06;2.20;99.90
14006;DHT22;7078;51.542;7.314;2024-03-08T07:21:32;2.30;99.90
14006;DHT22;7078;51.542;7.314;2024-03-08T07:23:58;2.50;99.90
14006;DHT22;7078;51.542;7.314;2024-03-08T07:26:35;2.60;99.90
14006;DHT22;7078;51.542;7.314;2024-03-08T07:29:00;2.80;99.90
14006;DHT22;7078;51.542;7.314;2024-03-08T07:31:26;2.90;99.90
14006;DHT22;7078;51.542;7.314;2024-03-08T07:33:52;3.00;99.90
14006;DHT22;7078;51.542;7.314;2024-03-08T07:36:21;3.20;99.90
14006;DHT22;7078;51.542;7.314;2024-03-08T07:38:47;3.10;99.90
14006;DHT22;7078;51.542;7.314;2024-03-08T07:41:13;3.20;99.90
14006;DHT22;7078;51.542;7.314;2024-03-08T07:43:40;3.40;99.90
14006;DHT22;7078;51.542;7.314;2024-03-08T07:46:05;3.50;99.90
14006;DHT22;7078;51.542;7.314;2024-03-08T07:48:31;3.60;99.90
14006;DHT22;7078;51.542;7.314;2024-03-08T07:50:56;3.70;99.90
14006;DHT22;7078;51.542;7.314;2024-03-08T07:53:22;3.90;99.90
14006;DHT22;7078;51.542;7.314;2024-03-08T07:55:49;4.20;99.90
14006;DHT22;7078;51.542;7.314;2024-03-08T07:58:15;4.30;99.90
14006;DHT22;7078;51.542;7.314;2024-03-08T08:00:40;4.50;99.90
14006;DHT22;7078;51.542;7.314;2024-03-08T08:03:08;4.50;99.90
14006;DHT22;7078;51.542;7.314;2024-03-08T08:05:34;4.60;99.90
14006;DHT22;7078;51.542;7.314;2024-03-08T08:08:04;4.60;99.90
14006;DHT22;7078;51.542;7.314;2024-03-08T08:10:35;4.50;99.90
14006;DHT22;7078;51.542;7.314;2024-03-08T08:13:00;4.40;99.90
14006;DHT22;7078;51.542;7.314;2024-03-08T08:15:26;4.20;99.90
14006;DHT22;7078;51.542;7.314;2024-03-08T08:17:53;4.20;99.90
14006;DHT22;7078;51.542;7.314;2024-03-08T08:20:19;4.20;99.90
14006;DHT22;7078;51.542;7.314;2024-03-08T08:22:44;4.20;99.90
14006;DHT22;7078;51.542;7.314;2024-03-08T08:25:10;4.20;99.90
14006;DHT22;7078;51.542;7.314;2024-03-08T08:27:41;4.20;99.90
14006;DHT22;7078;51.542;7.314;2024-03-08T08:30:08;4.30;99.90
14006;DHT22;7078;51.542;7.314;2024-03-08T08:32:35;4.30;99.90
14006;DHT22;7078;51.542;7.314;2024-03-08T08:35:05;4.40;99.90
14006;DHT22;7078;51.542;7.314;2024-03-08T08:37:32;4.40;99.90
14006;DHT22;7078;51.542;7.314;2024-03-08T08:39:57;4.50;99.90
14006;DHT22;7078;51.542;7.314;2024-03-08T08:42:24;4.60;99.90
14006;DHT22;7078;51.542;7.314;2024-03-08T08:44:51;4.70;99.90
14006;DHT22;7078;51.542;7.314;2024-03-08T08:47:17;4.80;99.90
14006;DHT22;7078;51.542;7.314;2024-03-08T08:49:44;4.80;99.90
14006;DHT22;7078;51.542;7.314;2024-03-08T08:52:11;4.80;99.90
14006;DHT22;7078;51.542;7.314;2024-03-08T08:54:37;4.80;99.90
14006;DHT22;7078;51.542;7.314;2024-03-08T08:57:02;4.90;99.90
14006;DHT22;7078;51.542;7.314;2024-03-08T08:59:35;5.10;99.90
14006;DHT22;7078;51.542;7.314;2024-03-08T09:02:07;5.20;99.90
14006;DHT22;7078;51.542;7.314;2024-03-08T09:04:34;5.20;99.90
14006;DHT22;7078;51.542;7.314;2024-03-08T09:07:01;5.30;99.90
14006;DHT22;7078;51.542;7.314;2024-03-08T09:09:27;5.40;99.90
14006;DHT22;7078;51.542;7.314;2024-03-08T09:11:52;5.50;99.90
14006;DHT22;7078;51.542;7.314;2024-03-08T09:14:19;5.60;99.90
14006;DHT22;7078;51.542;7.314;2024-03-08T09:16:45;5.50;99.90
14006;DHT22;7078;51.542;7.314;2024-03-08T09:19:12;5.60;99.90
14006;DHT22;7078;51.542;7.314;2024-03-08T09:21:38;5.70;99.90
14006;DHT22;7078;51.542;7.314;2024-03-08T09:24:05;5.90;99.90
14006;DHT22;7078;51.542;7.314;2024-03-08T09:26:32;6.00;99.90
14006;DHT22;7078;51.542;7.314;2024-03-08T09:28:59;6.10;99.90
14006;DHT22;7078;51.542;7.314;2024-03-08T09:31:24;6.10;99.90
14006;DHT22;7078;51.542;7.314;2024-03-08T09:33:51;6.00;99.90
14006;DHT22;7078;51.542;7.314;2024-03-08T09:36:17;5.90;99.90
14006;DHT22;7078;51.542;7.314;2024-03-08T09:38:43;6.10;99.90
14006;DHT22;7078;51.542;7.314;2024-03-08T09:41:09;6.10;99.90
14006;DHT22;7078;51.542;7.314;2024-03-08T09:43:36;6.10;99.90
14006;DHT22;7078;51.542;7.314;2024-03-08T09:46:02;6.30;99.90
14006;DHT22;7078;51.542;7.314;2024-03-08T09:48:29;6.40;99.90
14006;DHT22;7078;51.542;7.314;2024-03-08T09:50:54;6.50;99.90
14006;DHT22;7078;51.542;7.314;2024-03-08T09:53:21;6.60;99.10
14006;DHT22;7078;51.542;7.314;2024-03-08T09:55:47;6.60;99.90
14006;DHT22;7078;51.542;7.314;2024-03-08T09:58:15;6.60;98.70
14006;DHT22;7078;51.542;7.314;2024-03-08T10:00:53;6.60;98.10
14006;DHT22;7078;51.542;7.314;2024-03-08T10:03:22;6.70;96.90
14006;DHT22;7078;51.542;7.314;2024-03-08T10:09:10;7.00;94.00
14006;DHT22;7078;51.542;7.314;2024-03-08T10:11:37;6.90;94.70
14006;DHT22;7078;51.542;7.314;2024-03-08T10:14:04;7.00;95.80
14006;DHT22;7078;51.542;7.314;2024-03-08T10:16:31;7.10;93.70
14006;DHT22;7078;51.542;7.314;2024-03-08T10:18:57;7.20;93.50
14006;DHT22;7078;51.542;7.314;2024-03-08T10:21:22;7.30;93.30
14006;DHT22;7078;51.542;7.314;2024-03-08T10:23:48;7.40;92.10
14006;DHT22;7078;51.542;7.314;2024-03-08T10:26:17;7.50;91.90
14006;DHT22;7078;51.542;7.314;2024-03-08T10:28:45;7.50;92.30
14006;DHT22;7078;51.542;7.314;2024-03-08T10:31:13;7.50;91.10
14006;DHT22;7078;51.542;7.314;2024-03-08T10:33:40;7.40;92.60
14006;DHT22;7078;51.542;7.314;2024-03-08T10:36:07;7.50;92.00
14006;DHT22;7078;51.542;7.314;2024-03-08T10:38:36;7.60;91.00
14006;DHT22;7078;51.542;7.314;2024-03-08T10:41:03;7.60;90.20
14006;DHT22;7078;51.542;7.314;2024-03-08T10:43:34;7.60;90.20
14006;DHT22;7078;51.542;7.314;2024-03-08T10:46:25;7.60;90.40
14006;DHT22;7078;51.542;7.314;2024-03-08T10:48:55;7.80;90.20
14006;DHT22;7078;51.542;7.314;2024-03-08T10:51:23;7.80;90.70
14006;DHT22;7078;51.542;7.314;2024-03-08T10:53:50;7.90;90.10
14006;DHT22;7078;51.542;7.314;2024-03-08T10:59:38;8.10;90.00
14006;DHT22;7078;51.542;7.314;2024-03-08T11:02:05;8.10;90.50
14006;DHT22;7078;51.542;7.314;2024-03-08T11:04:33;8.20;90.00
14006;DHT22;7078;51.542;7.314;2024-03-08T11:07:02;8.30;89.00
14006;DHT22;7078;51.542;7.314;2024-03-08T11:12:26;8.20;87.30
14006;DHT22;7078;51.542;7.314;2024-03-08T11:15:02;8.10;88.20
14006;DHT22;7078;51.542;7.314;2024-03-08T11:19:58;8.30;88.10
14006;DHT22;7078;51.542;7.314;2024-03-08T11:22:33;8.50;88.40
14006;DHT22;7078;51.542;7.314;2024-03-08T11:25:03;8.60;85.90
14006;DHT22;7078;51.542;7.314;2024-03-08T11:27:29;8.60;86.20
14006;DHT22;7078;51.542;7.314;2024-03-08T11:30:01;8.60;84.70
14006;DHT22;7078;51.542;7.314;2024-03-08T11:32:35;8.60;86.40
14006;DHT22;7078;51.542;7.314;2024-03-08T11:35:03;8.60;86.00
14006;DHT22;7078;51.542;7.314;2024-03-08T11:37:33;8.70;86.70
14006;DHT22;7078;51.542;7.314;2024-03-08T11:40:11;8.80;86.90
14006;DHT22;7078;51.542;7.314;2024-03-08T11:42:39;8.90;86.80
14006;DHT22;7078;51.542;7.314;2024-03-08T11:45:09;9.00;86.50
14006;DHT22;7078;51.542;7.314;2024-03-08T11:47:37;9.20;84.90
14006;DHT22;7078;51.542;7.314;2024-03-08T11:50:06;9.30;85.30
14006;DHT22;7078;51.542;7.314;2024-03-08T11:52:36;9.40;84.70
14006;DHT22;7078;51.542;7.314;2024-03-08T11:55:02;9.60;82.10
14006;DHT22;7078;51.542;7.314;2024-03-08T11:57:28;9.70;81.00
14006;DHT22;7078;51.542;7.314;2024-03-08T11:59:55;9.90;80.60
14006;DHT22;7078;51.542;7.314;2024-03-08T12:02:32;9.90;75.80
14006;DHT22;7078;51.542;7.314;2024-03-08T12:05:01;9.90;76.40
14006;DHT22;7078;51.542;7.314;2024-03-08T12:07:29;10.00;78.10
14006;DHT22;7078;51.542;7.314;2024-03-08T12:12:44;10.30;76.40
14006;DHT22;7078;51.542;7.314;2024-03-08T12:15:10;10.40;73.40
14006;DHT22;7078;51.542;7.314;2024-03-08T12:17:37;10.50;71.70
14006;DHT22;7078;51.542;7.314;2024-03-08T12:20:24;10.60;68.00
14006;DHT22;7078;51.542;7.314;2024-03-08T12:22:57;10.60;68.00
14006;DHT22;7078;51.542;7.314;2024-03-08T12:25:32;10.70;66.60
14006;DHT22;7078;51.542;7.314;2024-03-08T12:28:11;10.90;61.50
14006;DHT22;7078;51.542;7.314;2024-03-08T12:30:49;11.00;58.60
14006;DHT22;7078;51.542;7.314;2024-03-08T12:33:16;11.20;58.30
14006;DHT22;7078;51.542;7.314;2024-03-08T12:35:53;11.30;57.00
14006;DHT22;7078;51.542;7.314;2024-03-08T12:38:23;11.40;56.90
14006;DHT22;7078;51.542;7.314;2024-03-08T12:40:55;11.50;56.50
14006;DHT22;7078;51.542;7.314;2024-03-08T12:43:22;11.50;56.00
14006;DHT22;7078;51.542;7.314;2024-03-08T12:45:47;11.50;56.80
14006;DHT22;7078;51.542;7.314;2024-03-08T12:48:14;11.60;57.10
14006;DHT22;7078;51.542;7.314;2024-03-08T12:50:41;11.60;56.90
14006;DHT22;7078;51.542;7.314;2024-03-08T12:53:09;11.60;57.60
14006;DHT22;7078;51.542;7.314;2024-03-08T12:55:34;11.80;56.20
14006;DHT22;7078;51.542;7.314;2024-03-08T12:58:00;11.80;56.40
14006;DHT22;7078;51.542;7.314;2024-03-08T13:00:26;11.90;55.30
14006;DHT22;7078;51.542;7.314;2024-03-08T13:02:53;11.80;55.10
14006;DHT22;7078;51.542;7.314;2024-03-08T13:05:19;11.70;54.30
14006;DHT22;7078;51.542;7.314;2024-03-08T13:07:45;11.70;55.90
14006;DHT22;7078;51.542;7.314;2024-03-08T13:10:15;11.70;55.10
14006;DHT22;7078;51.542;7.314;2024-03-08T13:12:44;11.80;55.30
14006;DHT22;7078;51.542;7.314;2024-03-08T13:15:10;11.80;55.10
14006;DHT22;7078;51.542;7.314;2024-03-08T13:17:41;11.80;54.50
14006;DHT22;7078;51.542;7.314;2024-03-08T13:20:08;11.90;54.70
14006;DHT22;7078;51.542;7.314;2024-03-08T13:22:35;12.00;54.10
14006;DHT22;7078;51.542;7.314;2024-03-08T13:25:01;12.00;55.30
14006;DHT22;7078;51.542;7.314;2024-03-08T13:27:28;12.00;56.00
14006;DHT22;7078;51.542;7.314;2024-03-08T13:29:53;11.80;55.60
14006;DHT22;7078;51.542;7.314;2024-03-08T13:32:19;11.70;56.30
14006;DHT22;7078;51.542;7.314;2024-03-08T13:34:46;11.60;57.10
14006;DHT22;7078;51.542;7.314;2024-03-08T13:37:19;11.70;56.80
14006;DHT22;7078;51.542;7.314;2024-03-08T13:39:45;11.80;57.60
14006;DHT22;7078;51.542;7.314;2024-03-08T13:42:11;11.90;56.80
14006;DHT22;7078;51.542;7.314;2024-03-08T13:44:39;12.00;57.10
14006;DHT22;7078;51.542;7.314;2024-03-08T13:47:08;12.10;57.00
14006;DHT22;7078;51.542;7.314;2024-03-08T13:49:33;12.00;55.80
14006;DHT22;7078;51.542;7.314;2024-03-08T13:52:00;12.00;55.80
14006;DHT22;7078;51.542;7.314;2024-03-08T13:54:25;11.90;56.30
14006;DHT22;7078;51.542;7.314;2024-03-08T13:56:52;11.80;56.70
14006;DHT22;7078;51.542;7.314;2024-03-08T13:59:20;11.90;57.10
14006;DHT22;7078;51.542;7.314;2024-03-08T14:01:48;11.70;56.80
14006;DHT22;7078;51.542;7.314;2024-03-08T14:04:14;11.80;56.80
14006;DHT22;7078;51.542;7.314;2024-03-08T14:06:40;11.80;57.20
14006;DHT22;7078;51.542;7.314;2024-03-08T14:09:06;11.80;57.30
14006;DHT22;7078;51.542;7.314;2024-03-08T14:11:33;11.90;56.70
14006;DHT22;7078;51.542;7.314;2024-03-08T14:13:58;11.90;56.80
14006;DHT22;7078;51.542;7.314;2024-03-08T14:16:24;11.90;56.90
14006;DHT22;7078;51.542;7.314;2024-03-08T14:18:50;11.80;56.90
14006;DHT22;7078;51.542;7.314;2024-03-08T14:21:15;11.70;56.40
14006;DHT22;7078;51.542;7.314;2024-03-08T14:23:42;11.80;57.00
14006;DHT22;7078;51.542;7.314;2024-03-08T14:26:08;11.70;56.60
14006;DHT22;7078;51.542;7.314;2024-03-08T14:28:35;11.60;55.70
14006;DHT22;7078;51.542;7.314;2024-03-08T14:31:01;11.60;56.40
14006;DHT22;7078;51.542;7.314;2024-03-08T14:33:28;11.50;56.50
14006;DHT22;7078;51.542;7.314;2024-03-08T14:35:54;11.50;56.50
14006;DHT22;7078;51.542;7.314;2024-03-08T14:38:20;11.50;57.10
14006;DHT22;7078;51.542;7.314;2024-03-08T14:40:45;11.60;57.40
14006;DHT22;7078;51.542;7.314;2024-03-08T14:43:12;11.70;57.40
14006;DHT22;7078;51.542;7.314;2024-03-08T14:45:39;11.70;56.40
14006;DHT22;7078;51.542;7.314;2024-03-08T14:48:06;11.70;56.70
14006;DHT22;7078;51.542;7.314;2024-03-08T14:50:34;11.70;56.30
14006;DHT22;7078;51.542;7.314;2024-03-08T14:53:02;11.80;57.30
14006;DHT22;7078;51.542;7.314;2024-03-08T14:55:31;11.80;56.80
14006;DHT22;7078;51.542;7.314;2024-03-08T14:57:57;11.80;55.10
14006;DHT22;7078;51.542;7.314;2024-03-08T15:00:22;11.80;55.10
14006;DHT22;7078;51.542;7.314;2024-03-08T15:03:01;11.80;57.60
14006;DHT22;7078;51.542;7.314;2024-03-08T15:05:34;11.60;58.60
14006;DHT22;7078;51.542;7.314;2024-03-08T15:08:03;11.50;58.70
14006;DHT22;7078;51.542;7.314;2024-03-08T15:10:35;11.50;59.40
14006;DHT22;7078;51.542;7.314;2024-03-08T15:13:00;11.40;59.50
14006;DHT22;7078;51.542;7.314;2024-03-08T15:15:27;11.30;59.80
14006;DHT22;7078;51.542;7.314;2024-03-08T15:17:55;11.30;60.50
14006;DHT22;7078;51.542;7.314;2024-03-08T15:20:23;11.30;61.00
14006;DHT22;7078;51.542;7.314;2024-03-08T15:22:54;11.20;60.60
14006;DHT22;7078;51.542;7.314;2024-03-08T15:25:23;11.30;61.50
14006;DHT22;7078;51.542;7.314;2024-03-08T15:27:55;11.20;60.70
14006;DHT22;7078;51.542;7.314;2024-03-08T15:30:21;11.30;61.20
14006;DHT22;7078;51.542;7.314;2024-03-08T15:32:54;11.30;60.60
14006;DHT22;7078;51.542;7.314;2024-03-08T15:35:24;11.30;61.20
14006;DHT22;7078;51.542;7.314;2024-03-08T15:37:51;11.20;61.10
14006;DHT22;7078;51.542;7.314;2024-03-08T15:40:17;11.10;61.40
14006;DHT22;7078;51.542;7.314;2024-03-08T15:42:55;11.00;61.50
14006;DHT22;7078;51.542;7.314;2024-03-08T15:45:20;11.00;61.70
14006;DHT22;7078;51.542;7.314;2024-03-08T15:47:49;10.90;61.20
14006;DHT22;7078;51.542;7.314;2024-03-08T15:50:14;10.90;61.80
14006;DHT22;7078;51.542;7.314;2024-03-08T15:52:43;11.00;61.60
14006;DHT22;7078;51.542;7.314;2024-03-08T15:55:17;11.00;61.10
14006;DHT22;7078;51.542;7.314;2024-03-08T15:57:46;11.00;61.80
14006;DHT22;7078;51.542;7.314;2024-03-08T16:00:14;11.00;61.10
14006;DHT22;7078;51.542;7.314;2024-03-08T16:02:44;11.00;60.80
14006;DHT22;7078;51.542;7.314;2024-03-08T16:05:09;11.10;61.20
14006;DHT22;7078;51.542;7.314;2024-03-08T16:07:37;11.10;60.30
14006;DHT22;7078;51.542;7.314;2024-03-08T16:10:04;11.20;60.80
14006;DHT22;7078;51.542;7.314;2024-03-08T16:12:35;11.20;60.70
14006;DHT22;7078;51.542;7.314;2024-03-08T16:15:01;11.30;60.40